Time;durP1;ratioP1;P1;durP2;ratioP2;P2;SDS_P1;SDS_P2;PMS_P1;PMS_P2;Temp;Humidity;BMP_temperature;BMP_pressure;BME280_temperature;BME280_humidity;BME280_pressure;Samples;Min_cycle;Max_cycle;Signal;HPM_P1;HPM_P2
2021/12/06 00:00:41;;;;;;;9.83;8.80;;;4.60;99.90;;;;;;4997434;28;20456;-90
2021/12/06 00:03:13;;;;;;;9.80;9.00;;;4.60;99.90;;;;;;4997219;28;20515;-89
2021/12/06 00:05:43;;;;;;;10.40;8.67;;;4.60;99.90;;;;;;5012203;28;20503;-89
2021/12/06 00:08:10;;;;;;;8.73;7.90;;;4.70;99.90;;;;;;5006093;28;20451;-89
2021/12/06 00:10:37;;;;;;;10.90;9.83;;;4.70;99.90;;;;;;5010091;28;20439;-89
2021/12/06 00:13:04;;;;;;;10.80;8.70;;;4.80;99.90;;;;;;5018201;28;20439;-89
2021/12/06 00:15:33;;;;;;;9.47;8.57;;;4.80;99.90;;;;;;5014922;28;21010;-89
2021/12/06 00:18:00;;;;;;;11.93;7.93;;;4.70;99.90;;;;;;5012696;28;20458;-89
2021/12/06 00:20:27;;;;;;;12.63;8.40;;;4.80;99.90;;;;;;4999801;28;20450;-89
2021/12/06 00:22:55;;;;;;;8.93;8.13;;;4.80;99.90;;;;;;4997973;28;20493;-88
2021/12/06 00:25:22;;;;;;;8.37;7.57;;;4.80;99.90;;;;;;4996715;28;20480;-89
2021/12/06 00:27:49;;;;;;;13.47;9.43;;;4.80;99.90;;;;;;4996689;28;20525;-89
2021/12/06 00:30:16;;;;;;;9.20;8.30;;;4.80;99.90;;;;;;4998056;28;20455;-89
2021/12/06 00:32:43;;;;;;;10.87;8.97;;;4.80;99.90;;;;;;4997407;28;20443;-90
2021/12/06 00:35:18;;;;;;;10.43;9.07;;;4.80;99.90;;;;;;4995563;28;20513;-89
2021/12/06 00:37:54;;;;;;;12.57;10.37;;;4.70;99.90;;;;;;4996300;28;20458;-89
2021/12/06 00:40:23;;;;;;;10.67;9.67;;;4.70;99.90;;;;;;4996411;28;20810;-89
2021/12/06 00:42:50;;;;;;;9.20;8.40;;;4.80;99.90;;;;;;4994942;28;20493;-89
2021/12/06 00:45:17;;;;;;;10.40;9.40;;;4.80;99.90;;;;;;4994811;28;20467;-90
2021/12/06 00:47:44;;;;;;;10.23;9.20;;;4.80;99.90;;;;;;4995707;28;20455;-89
2021/12/06 00:50:11;;;;;;;10.03;9.10;;;4.80;99.90;;;;;;4995300;28;20879;-89
2021/12/06 00:52:38;;;;;;;9.53;8.60;;;4.80;99.90;;;;;;4995720;28;20451;-90
2021/12/06 00:55:07;;;;;;;11.40;8.93;;;4.80;99.90;;;;;;4995357;28;20478;-89
2021/12/06 00:57:35;;;;;;;11.10;10.00;;;4.80;99.90;;;;;;4996333;28;20451;-89
2021/12/06 01:00:02;;;;;;;9.63;8.73;;;4.80;99.90;;;;;;4987535;28;20829;-89
2021/12/06 01:02:29;;;;;;;12.10;9.97;;;4.80;99.90;;;;;;4980031;28;20451;-88
2021/12/06 01:04:56;;;;;;;9.83;8.80;;;4.80;99.90;;;;;;4990305;28;20459;-88
2021/12/06 01:07:23;;;;;;;11.37;10.27;;;4.80;99.90;;;;;;5003048;28;20515;-89
2021/12/06 01:09:50;;;;;;;9.50;8.67;;;4.70;99.90;;;;;;5009693;28;20454;-89
2021/12/06 01:12:17;;;;;;;9.27;8.37;;;4.80;99.90;;;;;;4996311;28;20455;-89
2021/12/06 01:14:45;;;;;;;9.90;8.97;;;4.70;99.90;;;;;;4997736;28;20492;-89
2021/12/06 01:17:12;;;;;;;10.67;9.60;;;4.70;99.90;;;;;;4996831;28;20447;-89
2021/12/06 01:19:38;;;;;;;9.97;8.97;;;4.70;99.90;;;;;;5010269;28;20446;-89
2021/12/06 01:22:18;;;;;;;10.97;9.87;;;4.70;99.90;;;;;;4997334;28;20447;-89
2021/12/06 01:24:52;;;;;;;10.00;9.10;;;4.70;99.90;;;;;;4996337;28;20469;-89
2021/12/06 01:27:39;;;;;;;12.73;9.80;;;4.60;99.90;;;;;;5001128;28;20531;-89
2021/12/06 01:41:18;;;;;;;9.87;8.90;;;4.70;99.90;;;;;;5014240;28;20471;-89
2021/12/06 01:44:06;;;;;;;10.13;9.23;;;4.60;99.90;;;;;;5010354;28;20488;-88
2021/12/06 01:46:36;;;;;;;11.53;10.43;;;4.70;99.90;;;;;;4996231;28;20818;-89
2021/12/06 01:49:03;;;;;;;10.53;9.43;;;4.70;99.90;;;;;;5003937;28;20434;-90
2021/12/06 01:51:31;;;;;;;10.40;9.50;;;4.70;99.90;;;;;;5014086;28;20454;-89
2021/12/06 01:53:58;;;;;;;10.80;9.77;;;4.70;99.90;;;;;;4994781;28;20454;-89
2021/12/06 01:56:25;;;;;;;10.97;9.87;;;4.70;99.90;;;;;;4995400;28;20459;-89
2021/12/06 01:58:51;;;;;;;11.67;10.50;;;4.70;99.90;;;;;;4995083;28;20459;-89
2021/12/06 02:01:18;;;;;;;13.60;11.30;;;4.70;99.90;;;;;;4994183;28;20974;-90
2021/12/06 02:03:46;;;;;;;12.00;11.00;;;4.70;99.90;;;;;;4995891;28;20483;-89
2021/12/06 02:06:13;;;;;;;11.90;10.77;;;4.70;99.90;;;;;;5015053;28;20470;-90
2021/12/06 02:08:40;;;;;;;12.00;10.70;;;4.70;99.90;;;;;;5008895;28;20508;-88
2021/12/06 02:11:08;;;;;;;12.33;11.13;;;4.70;99.90;;;;;;5000103;28;20432;-90
2021/12/06 02:13:42;;;;;;;12.17;11.07;;;4.70;99.90;;;;;;4995762;28;20902;-89
2021/12/06 02:16:09;;;;;;;12.80;10.73;;;4.70;99.90;;;;;;4994508;28;20480;-89
2021/12/06 02:18:44;;;;;;;12.80;10.97;;;4.70;99.90;;;;;;4993088;28;20458;-89
2021/12/06 02:21:17;;;;;;;13.80;12.40;;;4.70;99.90;;;;;;4975859;28;20436;-89
2021/12/06 02:23:44;;;;;;;11.30;10.30;;;4.70;99.90;;;;;;4975306;28;20546;-89
2021/12/06 02:26:11;;;;;;;13.37;11.97;;;4.70;99.90;;;;;;4984648;28;20483;-89
2021/12/06 02:28:37;;;;;;;13.70;12.40;;;4.70;99.90;;;;;;4997284;28;20456;-89
2021/12/06 02:31:05;;;;;;;13.00;11.60;;;4.70;99.90;;;;;;4997335;28;20452;-89
2021/12/06 02:33:31;;;;;;;12.73;11.53;;;4.70;99.90;;;;;;4977967;28;20448;-89
2021/12/06 02:35:58;;;;;;;12.67;11.60;;;4.70;99.90;;;;;;5005997;28;20465;-90
2021/12/06 02:38:26;;;;;;;13.90;12.43;;;4.70;99.90;;;;;;5016496;28;20527;-90
2021/12/06 02:40:53;;;;;;;15.93;12.67;;;4.70;99.90;;;;;;5008341;28;20458;-89
2021/12/06 02:43:20;;;;;;;13.83;12.53;;;4.70;99.90;;;;;;5005649;28;20486;-89
2021/12/06 02:45:47;;;;;;;15.20;13.70;;;4.70;99.90;;;;;;5013143;28;20462;-89
2021/12/06 02:48:15;;;;;;;13.37;12.17;;;4.70;99.90;;;;;;4997276;28;20474;-90
2021/12/06 02:50:45;;;;;;;13.63;12.17;;;4.70;99.90;;;;;;4995776;28;20457;-89
2021/12/06 02:53:13;;;;;;;14.03;12.73;;;4.70;99.90;;;;;;4996825;28;20451;-89
2021/12/06 02:55:43;;;;;;;14.53;13.03;;;4.60;99.90;;;;;;5005818;28;20451;-89
2021/12/06 02:58:17;;;;;;;14.47;13.13;;;4.60;99.90;;;;;;5003199;28;20456;-89
2021/12/06 03:00:47;;;;;;;15.40;14.00;;;4.70;99.90;;;;;;5005978;28;20453;-89
2021/12/06 03:03:16;;;;;;;14.90;13.60;;;4.60;99.90;;;;;;5001676;28;20478;-89
2021/12/06 03:05:43;;;;;;;16.03;14.53;;;4.60;99.90;;;;;;4998454;28;20849;-89
2021/12/06 03:08:10;;;;;;;14.33;13.03;;;4.60;99.90;;;;;;4997530;28;20447;-89
2021/12/06 03:10:37;;;;;;;15.20;14.00;;;4.70;99.90;;;;;;4996767;28;20460;-89
2021/12/06 03:13:06;;;;;;;14.63;13.37;;;4.70;99.90;;;;;;4998493;28;20445;-89
2021/12/06 03:15:33;;;;;;;15.30;13.90;;;4.70;99.90;;;;;;4998515;28;20473;-89
2021/12/06 03:17:59;;;;;;;14.30;12.80;;;4.70;99.90;;;;;;4998292;28;20450;-89
2021/12/06 03:20:26;;;;;;;12.97;11.67;;;4.70;99.90;;;;;;4997701;28;20465;-90
2021/12/06 03:22:53;;;;;;;15.60;12.87;;;4.60;99.90;;;;;;4997471;28;20524;-89
2021/12/06 03:25:20;;;;;;;14.10;12.60;;;4.60;99.90;;;;;;4997084;28;20479;-89
2021/12/06 03:27:48;;;;;;;14.13;12.80;;;4.60;99.90;;;;;;4997315;28;20442;-89
2021/12/06 03:30:17;;;;;;;14.93;13.53;;;4.60;99.90;;;;;;5002708;28;20454;-90
2021/12/06 03:32:43;;;;;;;13.93;12.60;;;4.60;99.90;;;;;;5012624;28;20439;-89
2021/12/06 03:35:12;;;;;;;12.40;11.20;;;4.60;99.90;;;;;;5020855;28;20459;-90
2021/12/06 03:37:39;;;;;;;14.00;12.60;;;4.70;99.90;;;;;;5015100;28;20466;-90
2021/12/06 03:40:08;;;;;;;13.30;11.90;;;4.70;99.90;;;;;;5006650;28;20447;-88
2021/12/06 03:42:35;;;;;;;14.23;12.80;;;4.80;99.90;;;;;;5013048;28;20450;-89
2021/12/06 03:45:02;;;;;;;12.87;11.57;;;4.80;99.90;;;;;;5009984;28;20474;-89
2021/12/06 03:47:31;;;;;;;15.13;13.67;;;4.70;99.90;;;;;;5011937;28;20455;-88
2021/12/06 03:53:20;;;;;;;18.70;13.63;;;4.80;99.90;;;;;;4996996;28;20464;-89
2021/12/06 03:55:47;;;;;;;14.33;12.93;;;4.80;99.90;;;;;;4996280;28;20461;-89
2021/12/06 03:58:14;;;;;;;15.93;14.37;;;4.80;99.90;;;;;;5002267;28;20450;-88
2021/12/06 04:00:41;;;;;;;14.60;13.20;;;4.80;99.90;;;;;;5013521;28;20443;-90
2021/12/06 04:03:12;;;;;;;13.67;12.33;;;4.80;99.90;;;;;;4997181;28;20466;-89
2021/12/06 04:05:39;;;;;;;14.50;13.00;;;4.90;99.90;;;;;;4998406;28;20471;-89
2021/12/06 04:08:06;;;;;;;13.23;12.03;;;4.80;99.90;;;;;;4999588;28;20458;-89
2021/12/06 04:10:33;;;;;;;15.40;13.90;;;4.80;99.90;;;;;;5020297;28;20426;-85
2021/12/06 04:13:00;;;;;;;13.77;12.47;;;4.90;99.90;;;;;;5006731;28;20458;-88
2021/12/06 04:15:29;;;;;;;13.60;12.40;;;4.90;99.90;;;;;;5010116;28;20484;-88
2021/12/06 04:17:56;;;;;;;14.27;12.87;;;4.80;99.90;;;;;;5020854;28;20446;-87
2021/12/06 04:20:24;;;;;;;14.47;13.20;;;4.90;99.90;;;;;;5010829;28;20454;-87
2021/12/06 04:22:52;;;;;;;15.13;13.63;;;4.90;99.90;;;;;;5022892;28;20505;-88
2021/12/06 04:25:19;;;;;;;14.17;12.87;;;4.90;99.90;;;;;;5005031;28;20486;-87
2021/12/06 04:27:52;;;;;;;14.33;13.10;;;4.90;99.90;;;;;;5003250;28;20456;-87
2021/12/06 04:30:22;;;;;;;14.77;13.40;;;4.90;99.90;;;;;;5002338;28;20501;-86
2021/12/06 04:32:49;;;;;;;15.97;14.33;;;4.90;99.90;;;;;;5003548;28;20459;-89
2021/12/06 04:35:16;;;;;;;15.10;13.70;;;4.90;99.90;;;;;;4998174;28;20482;-88
2021/12/06 04:37:44;;;;;;;17.80;16.00;;;4.90;99.90;;;;;;4994153;28;20949;-88
2021/12/06 04:40:12;;;;;;;16.87;15.17;;;4.90;99.90;;;;;;4994024;28;21037;-88
2021/12/06 04:42:40;;;;;;;16.57;14.97;;;4.90;99.90;;;;;;4996907;28;20454;-88
2021/12/06 04:45:08;;;;;;;16.63;15.03;;;4.90;99.90;;;;;;5016379;28;20495;-88
2021/12/06 04:47:35;;;;;;;17.97;16.13;;;4.90;99.90;;;;;;4997528;28;20458;-88
2021/12/06 04:50:02;;;;;;;18.57;16.83;;;4.80;99.90;;;;;;5008795;28;20439;-87
2021/12/06 04:52:29;;;;;;;18.30;16.50;;;4.80;99.90;;;;;;5001674;28;20506;-88
2021/12/06 04:55:00;;;;;;;17.83;16.13;;;4.90;99.90;;;;;;4995125;28;20470;-88
2021/12/06 04:57:33;;;;;;;17.90;16.00;;;4.80;99.90;;;;;;4998554;28;20450;-87
2021/12/06 05:00:08;;;;;;;19.30;17.40;;;4.80;99.90;;;;;;5007336;28;20450;-87
2021/12/06 05:02:39;;;;;;;18.63;16.80;;;4.80;99.90;;;;;;4998645;28;20454;-88
2021/12/06 05:05:09;;;;;;;22.53;18.60;;;4.80;99.90;;;;;;4996383;28;20483;-89
2021/12/06 05:07:40;;;;;;;20.20;18.10;;;4.80;99.90;;;;;;4999902;28;20459;-88
2021/12/06 05:10:12;;;;;;;19.23;16.97;;;4.80;99.90;;;;;;4996692;28;20487;-88
2021/12/06 05:12:39;;;;;;;20.27;18.07;;;4.90;99.90;;;;;;4998377;28;20458;-87
2021/12/06 05:15:07;;;;;;;21.37;18.40;;;4.80;99.90;;;;;;5011866;28;20454;-86
2021/12/06 05:17:34;;;;;;;17.30;15.70;;;4.80;99.90;;;;;;5006768;28;20850;-87
2021/12/06 05:20:02;;;;;;;16.00;14.43;;;4.80;99.90;;;;;;4997475;28;20477;-88
2021/12/06 05:22:29;;;;;;;16.30;14.60;;;4.70;99.90;;;;;;5002246;28;20531;-88
2021/12/06 05:24:56;;;;;;;16.77;14.50;;;4.80;99.90;;;;;;5016273;28;20513;-87
2021/12/06 05:27:28;;;;;;;16.03;14.53;;;4.80;99.90;;;;;;5000791;28;20556;-87
2021/12/06 05:29:58;;;;;;;18.90;14.87;;;4.80;99.90;;;;;;5006977;28;20521;-87
2021/12/06 05:32:28;;;;;;;16.27;14.50;;;4.90;99.90;;;;;;4995153;28;20505;-87
2021/12/06 05:35:01;;;;;;;17.00;15.23;;;4.90;99.90;;;;;;4997574;28;20459;-88
2021/12/06 05:37:28;;;;;;;19.23;16.90;;;4.90;99.90;;;;;;4998781;28;20447;-87
2021/12/06 05:39:55;;;;;;;16.50;14.80;;;4.90;99.90;;;;;;4994431;28;20952;-86
2021/12/06 05:42:26;;;;;;;17.13;15.40;;;4.80;99.90;;;;;;5002910;28;20451;-88
2021/12/06 05:44:52;;;;;;;16.60;15.00;;;4.90;99.90;;;;;;4997230;28;20489;-88
2021/12/06 05:47:19;;;;;;;18.50;16.60;;;4.90;99.90;;;;;;5005439;28;20451;-88
2021/12/06 05:49:46;;;;;;;20.20;17.97;;;4.90;99.90;;;;;;4999725;28;20488;-87
2021/12/06 05:52:13;;;;;;;21.83;18.47;;;4.90;99.90;;;;;;4996754;28;20454;-87
2021/12/06 05:54:40;;;;;;;20.20;18.10;;;4.90;99.90;;;;;;4996978;28;20475;-88
2021/12/06 05:57:08;;;;;;;23.80;20.60;;;5.00;99.90;;;;;;4995858;28;20523;-88
2021/12/06 05:59:36;;;;;;;24.43;20.13;;;4.90;99.90;;;;;;4996718;28;20439;-87
2021/12/06 06:02:03;;;;;;;23.20;18.73;;;4.90;99.90;;;;;;4986149;28;20452;-87
2021/12/06 06:04:30;;;;;;;27.60;22.57;;;5.00;99.90;;;;;;5001126;28;20486;-86
2021/12/06 06:06:56;;;;;;;24.33;18.30;;;4.90;99.90;;;;;;5014224;28;20439;-87
2021/12/06 06:09:23;;;;;;;25.67;20.20;;;4.90;99.90;;;;;;5004623;28;20453;-87
2021/12/06 06:11:50;;;;;;;23.60;18.97;;;4.90;99.90;;;;;;4996423;28;20454;-87
2021/12/06 06:14:17;;;;;;;24.60;19.17;;;4.90;99.90;;;;;;4997923;28;20975;-88
2021/12/06 06:16:51;;;;;;;21.67;17.50;;;4.90;99.90;;;;;;4996645;28;20486;-87
2021/12/06 06:19:20;;;;;;;27.47;21.33;;;4.90;99.90;;;;;;5004558;28;20481;-86
2021/12/06 06:21:47;;;;;;;26.90;20.33;;;4.90;99.90;;;;;;5008643;28;20443;-87
2021/12/06 06:24:14;;;;;;;29.43;22.10;;;4.80;99.90;;;;;;4993961;28;20478;-87
2021/12/06 06:26:41;;;;;;;27.90;20.67;;;4.80;99.90;;;;;;4995467;28;20942;-88
2021/12/06 06:29:09;;;;;;;28.17;21.40;;;4.80;99.90;;;;;;4993877;28;20436;-88
2021/12/06 06:31:36;;;;;;;28.57;22.80;;;4.80;99.90;;;;;;4996233;28;20451;-87
2021/12/06 06:34:04;;;;;;;26.37;20.33;;;4.90;99.90;;;;;;5009005;28;20454;-86
2021/12/06 06:36:31;;;;;;;24.03;19.60;;;4.90;99.90;;;;;;4997022;28;20474;-86
2021/12/06 06:38:58;;;;;;;25.50;20.70;;;4.90;99.90;;;;;;5013150;28;20453;-86
2021/12/06 06:41:30;;;;;;;24.03;19.77;;;4.90;99.90;;;;;;4999448;28;20780;-88
2021/12/06 06:43:56;;;;;;;23.67;19.87;;;4.90;99.90;;;;;;4999323;28;20538;-87
2021/12/06 06:46:23;;;;;;;23.73;18.80;;;4.90;99.90;;;;;;4997825;28;20467;-87
2021/12/06 06:48:50;;;;;;;20.50;18.30;;;4.90;99.90;;;;;;4997207;28;20458;-87
2021/12/06 06:51:18;;;;;;;23.70;20.83;;;4.90;99.90;;;;;;4996752;28;20460;-85
2021/12/06 06:53:45;;;;;;;24.17;20.10;;;4.90;99.90;;;;;;5006957;28;20437;-85
2021/12/06 06:56:11;;;;;;;31.80;21.50;;;4.80;99.90;;;;;;5013395;28;20943;-86
2021/12/06 06:58:38;;;;;;;25.73;21.80;;;4.80;99.90;;;;;;4997614;28;20451;-87
2021/12/06 07:01:05;;;;;;;26.60;22.37;;;4.80;99.90;;;;;;4996830;28;20442;-86
2021/12/06 07:03:32;;;;;;;25.47;22.63;;;4.90;99.90;;;;;;5000362;28;20453;-87
2021/12/06 07:05:59;;;;;;;25.77;22.00;;;4.80;99.90;;;;;;4997112;28;20494;-87
2021/12/06 07:08:27;;;;;;;26.40;21.23;;;4.80;99.90;;;;;;4996581;28;20455;-87
2021/12/06 07:10:54;;;;;;;24.47;21.10;;;4.90;99.90;;;;;;5016852;28;20505;-84
2021/12/06 07:13:22;;;;;;;24.40;20.70;;;4.90;99.90;;;;;;5018874;28;20503;-86
2021/12/06 07:15:49;;;;;;;27.10;21.53;;;4.90;99.90;;;;;;5014136;28;20455;-87
2021/12/06 07:18:17;;;;;;;29.57;23.97;;;4.90;99.90;;;;;;5007533;28;20800;-87
2021/12/06 07:20:44;;;;;;;28.50;22.07;;;4.90;99.90;;;;;;5000218;28;20447;-86
2021/12/06 07:23:11;;;;;;;27.93;21.90;;;4.90;99.90;;;;;;5000517;28;20462;-86
2021/12/06 07:25:40;;;;;;;27.70;21.30;;;4.90;99.90;;;;;;5002086;28;20490;-86
2021/12/06 07:28:08;;;;;;;26.60;21.50;;;5.00;99.90;;;;;;4999446;28;20451;-86
2021/12/06 07:30:34;;;;;;;26.23;22.53;;;5.00;99.90;;;;;;4997829;28;20458;-87
2021/12/06 07:33:01;;;;;;;28.27;21.80;;;5.00;99.90;;;;;;4998517;28;20446;-87
2021/12/06 07:35:29;;;;;;;29.97;22.17;;;5.00;99.90;;;;;;5004507;28;20458;-86
2021/12/06 07:37:56;;;;;;;26.67;22.47;;;5.00;99.90;;;;;;5008688;28;21007;-86
2021/12/06 07:40:23;;;;;;;28.80;22.77;;;5.00;99.90;;;;;;4999880;28;20446;-87
2021/12/06 07:42:52;;;;;;;24.53;20.80;;;5.00;99.90;;;;;;4999054;28;20461;-87
2021/12/06 07:45:19;;;;;;;26.40;21.60;;;5.00;99.90;;;;;;4998921;28;20517;-87
2021/12/06 07:47:47;;;;;;;27.93;21.93;;;5.00;99.90;;;;;;4998684;28;20455;-88
2021/12/06 07:50:22;;;;;;;26.53;20.30;;;5.00;99.90;;;;;;4999044;28;20462;-86
2021/12/06 07:52:50;;;;;;;28.20;21.50;;;5.00;99.90;;;;;;4998348;28;20460;-87
2021/12/06 07:55:19;;;;;;;25.63;20.60;;;5.00;99.90;;;;;;5001488;28;20983;-86
2021/12/06 07:57:46;;;;;;;28.73;20.93;;;5.00;99.90;;;;;;5016754;28;20458;-85
2021/12/06 08:00:19;;;;;;;25.67;20.90;;;5.00;99.90;;;;;;5006158;28;20453;-87
2021/12/06 08:02:46;;;;;;;26.33;20.20;;;5.10;99.90;;;;;;5018355;28;20458;-85
2021/12/06 08:05:33;;;;;;;23.53;20.50;;;5.10;99.90;;;;;;4993673;28;20553;-85
2021/12/06 08:08:02;;;;;;;24.63;19.33;;;5.10;99.90;;;;;;5019207;28;20438;-86
2021/12/06 08:10:29;;;;;;;29.03;26.07;;;5.10;99.90;;;;;;5017867;28;20465;-85
2021/12/06 08:12:56;;;;;;;25.80;21.17;;;5.20;99.90;;;;;;5011650;28;20928;-86
2021/12/06 08:15:24;;;;;;;26.80;20.03;;;5.20;99.90;;;;;;4999804;28;20490;-86
2021/12/06 08:17:51;;;;;;;22.67;19.33;;;5.30;99.90;;;;;;5009624;28;20431;-84
2021/12/06 08:20:18;;;;;;;24.73;20.23;;;5.30;99.90;;;;;;5010360;28;20815;-86
2021/12/06 08:22:45;;;;;;;26.33;20.80;;;5.40;99.90;;;;;;4996419;28;20451;-86
2021/12/06 08:25:15;;;;;;;25.43;20.83;;;5.40;99.90;;;;;;4997859;28;20509;-88
2021/12/06 08:27:41;;;;;;;24.20;20.57;;;5.40;99.90;;;;;;4999367;28;20451;-86
2021/12/06 08:30:12;;;;;;;22.37;19.07;;;5.50;99.90;;;;;;4995431;28;20474;-88
2021/12/06 08:32:40;;;;;;;25.13;20.83;;;5.50;99.90;;;;;;4998382;28;20447;-86
2021/12/06 08:35:08;;;;;;;24.30;18.53;;;5.50;99.90;;;;;;4997058;28;20497;-84
2021/12/06 08:37:35;;;;;;;25.77;20.23;;;5.60;99.90;;;;;;5013852;28;20487;-86
2021/12/06 08:40:01;;;;;;;28.23;20.07;;;5.50;99.90;;;;;;5000289;28;20451;-86
2021/12/06 08:42:28;;;;;;;19.30;16.30;;;5.50;99.90;;;;;;4996547;28;20542;-86
2021/12/06 08:44:55;;;;;;;25.07;18.57;;;5.50;99.90;;;;;;4995752;28;20489;-86
2021/12/06 08:47:22;;;;;;;27.77;17.77;;;5.60;99.90;;;;;;4994743;28;20973;-86
2021/12/06 08:49:50;;;;;;;26.93;18.70;;;5.60;99.90;;;;;;4995864;28;20944;-86
2021/12/06 08:52:17;;;;;;;23.73;17.07;;;5.70;99.90;;;;;;5008243;28;20967;-86
2021/12/06 08:54:44;;;;;;;24.37;17.83;;;5.60;99.90;;;;;;4999884;28;20466;-86
2021/12/06 08:57:11;;;;;;;22.77;16.40;;;5.70;99.90;;;;;;4997396;28;20872;-86
2021/12/06 08:59:38;;;;;;;24.10;17.47;;;5.70;99.90;;;;;;4998850;28;20451;-86
2021/12/06 09:02:06;;;;;;;23.20;16.30;;;5.80;99.90;;;;;;5000099;28;20482;-86
2021/12/06 09:04:37;;;;;;;24.27;18.37;;;5.90;99.90;;;;;;5016621;28;20463;-86
2021/12/06 09:07:11;;;;;;;21.13;16.10;;;6.00;99.90;;;;;;4983286;28;20812;-87
2021/12/06 09:09:40;;;;;;;23.27;18.93;;;6.20;99.90;;;;;;4976703;28;20471;-87
2021/12/06 09:12:07;;;;;;;23.50;17.03;;;6.30;99.90;;;;;;4975966;28;20452;-86
2021/12/06 09:14:34;;;;;;;20.93;17.10;;;6.60;99.90;;;;;;4986011;28;20464;-85
2021/12/06 09:17:01;;;;;;;22.20;16.87;;;6.80;99.90;;;;;;4996148;28;20947;-86
2021/12/06 09:19:28;;;;;;;25.60;18.50;;;6.80;99.90;;;;;;4996267;28;20932;-86
2021/12/06 09:21:54;;;;;;;22.50;18.17;;;6.90;99.90;;;;;;4994620;28;20458;-86
2021/12/06 09:24:22;;;;;;;22.10;17.93;;;7.00;99.90;;;;;;4994158;28;20450;-87
2021/12/06 09:26:50;;;;;;;22.20;17.33;;;7.10;99.90;;;;;;4994994;28;20494;-87
2021/12/06 09:29:18;;;;;;;22.10;16.40;;;7.10;99.90;;;;;;5010699;28;20443;-84
2021/12/06 09:31:46;;;;;;;21.90;17.20;;;7.10;99.90;;;;;;5015339;28;20447;-84
2021/12/06 09:34:13;;;;;;;21.00;16.03;;;7.10;99.90;;;;;;5002743;28;20439;-85
2021/12/06 09:36:40;;;;;;;23.17;17.70;;;7.10;99.90;;;;;;5000953;28;20446;-83
2021/12/06 09:39:07;;;;;;;22.13;17.10;;;6.90;99.90;;;;;;5013636;28;20424;-84
2021/12/06 09:41:35;;;;;;;21.93;16.00;;;6.90;99.90;;;;;;5011141;28;20447;-84
2021/12/06 09:44:05;;;;;;;21.77;15.87;;;6.80;99.90;;;;;;4996212;28;20451;-85
2021/12/06 09:46:35;;;;;;;19.77;15.77;;;6.70;99.90;;;;;;5003630;28;20483;-87
2021/12/06 09:49:05;;;;;;;20.03;15.90;;;6.70;99.90;;;;;;4994469;28;20455;-87
2021/12/06 09:51:31;;;;;;;18.60;15.00;;;6.80;99.90;;;;;;4992641;28;20447;-87
2021/12/06 09:53:59;;;;;;;19.43;15.97;;;6.90;99.90;;;;;;4992339;28;20455;-87
2021/12/06 09:56:29;;;;;;;24.87;17.17;;;7.00;99.90;;;;;;4994355;28;20467;-87
2021/12/06 09:58:59;;;;;;;22.63;16.70;;;7.00;99.90;;;;;;4991631;28;20451;-87
2021/12/06 10:01:29;;;;;;;25.37;18.03;;;7.10;99.90;;;;;;4993625;28;20947;-87
2021/12/06 10:03:58;;;;;;;22.60;17.30;;;7.20;99.90;;;;;;4992639;28;20456;-86
2021/12/06 10:06:27;;;;;;;21.33;18.03;;;7.20;99.90;;;;;;4993454;28;20486;-87
2021/12/06 10:08:55;;;;;;;21.13;16.97;;;7.10;99.90;;;;;;4995369;28;20451;-86
2021/12/06 10:11:24;;;;;;;21.20;17.07;;;7.10;99.90;;;;;;4996646;28;20446;-85
2021/12/06 10:13:52;;;;;;;20.60;15.77;;;7.00;99.90;;;;;;5014959;28;20423;-84
2021/12/06 10:16:21;;;;;;;20.30;14.80;;;7.00;99.90;;;;;;5003847;28;20474;-86
2021/12/06 10:18:48;;;;;;;21.97;16.33;;;7.00;99.90;;;;;;5015610;28;20450;-84
2021/12/06 10:21:17;;;;;;;19.60;16.50;;;7.00;99.90;;;;;;5007392;28;20489;-84
2021/12/06 10:23:43;;;;;;;21.40;17.57;;;7.00;99.90;;;;;;5009542;28;20517;-86
2021/12/06 10:26:13;;;;;;;21.30;17.07;;;7.20;99.90;;;;;;4976961;28;20896;-86
2021/12/06 10:28:43;;;;;;;20.23;16.53;;;7.40;99.90;;;;;;4988537;28;20458;-87
2021/12/06 10:31:13;;;;;;;22.90;16.70;;;7.40;99.90;;;;;;4994332;28;20482;-86
2021/12/06 10:33:44;;;;;;;18.87;15.57;;;7.80;99.90;;;;;;4994875;28;20448;-86
2021/12/06 10:36:15;;;;;;;17.87;14.63;;;9.60;99.90;;;;;;4993073;28;20459;-87
2021/12/06 10:38:47;;;;;;;18.90;15.07;;;12.90;99.90;;;;;;4993337;28;20586;-87
2021/12/06 10:41:16;;;;;;;17.33;15.50;;;13.90;94.10;;;;;;4993255;28;20466;-86
2021/12/06 10:43:52;;;;;;;19.60;14.50;;;12.90;92.30;;;;;;5004663;28;20442;-86
2021/12/06 10:46:19;;;;;;;19.03;16.50;;;11.90;93.40;;;;;;5002889;28;20493;-86
2021/12/06 10:48:47;;;;;;;19.03;15.83;;;10.90;94.60;;;;;;4995149;28;20539;-86
2021/12/06 10:51:17;;;;;;;17.97;15.30;;;10.50;96.40;;;;;;4995580;28;20513;-86
2021/12/06 10:53:49;;;;;;;20.93;15.90;;;10.20;96.70;;;;;;4994844;28;20440;-87
2021/12/06 10:56:20;;;;;;;19.67;15.13;;;9.80;97.80;;;;;;4996974;28;20565;-86
2021/12/06 10:58:49;;;;;;;21.23;16.50;;;9.40;98.60;;;;;;5000345;28;20830;-85
2021/12/06 11:01:18;;;;;;;20.27;15.50;;;9.30;99.40;;;;;;5015600;28;20437;-86
2021/12/06 11:03:48;;;;;;;19.53;16.10;;;10.40;99.50;;;;;;5008474;28;20455;-87
2021/12/06 11:06:19;;;;;;;18.20;12.87;;;10.90;96.60;;;;;;5001506;28;20817;-86
2021/12/06 11:08:48;;;;;;;19.27;14.70;;;10.50;95.70;;;;;;5001745;28;20450;-86
2021/12/06 11:11:16;;;;;;;12.93;10.97;;;9.80;97.00;;;;;;4997107;28;20445;-87
2021/12/06 11:13:46;;;;;;;22.00;11.73;;;9.40;97.60;;;;;;4996278;28;20458;-86
2021/12/06 11:16:18;;;;;;;16.00;11.80;;;9.00;98.10;;;;;;4997486;28;20475;-87
2021/12/06 11:18:53;;;;;;;15.50;12.60;;;8.70;99.00;;;;;;4995571;28;20514;-87
2021/12/06 11:21:25;;;;;;;14.70;11.37;;;8.50;99.60;;;;;;4995147;28;20450;-86
2021/12/06 11:24:11;;;;;;;14.17;11.80;;;8.40;99.90;;;;;;4998740;28;20454;-85
2021/12/06 11:26:41;;;;;;;15.63;10.63;;;8.30;99.90;;;;;;5013669;28;20486;-86
2021/12/06 11:29:12;;;;;;;14.43;10.97;;;8.20;99.90;;;;;;5010423;28;20451;-87
2021/12/06 11:31:40;;;;;;;11.80;9.97;;;8.20;99.90;;;;;;5000824;28;20458;-87
2021/12/06 11:34:09;;;;;;;14.33;9.23;;;8.00;99.90;;;;;;4999062;28;20466;-85
2021/12/06 11:36:40;;;;;;;14.87;10.77;;;7.90;99.90;;;;;;4995754;28;20447;-84
2021/12/06 11:39:11;;;;;;;14.37;9.73;;;7.70;99.90;;;;;;4997646;28;20451;-86
2021/12/06 11:41:42;;;;;;;12.27;9.53;;;7.60;99.90;;;;;;4998509;28;20447;-85
2021/12/06 11:44:18;;;;;;;11.63;9.67;;;7.60;99.90;;;;;;4997707;28;20464;-86
2021/12/06 11:46:46;;;;;;;14.43;8.93;;;7.60;99.90;;;;;;4996864;28;20479;-86
2021/12/06 11:49:19;;;;;;;12.87;10.87;;;7.50;99.90;;;;;;4996473;28;20443;-87
2021/12/06 11:51:46;;;;;;;15.60;11.60;;;7.50;99.90;;;;;;4996565;28;20955;-85
2021/12/06 11:54:13;;;;;;;12.33;9.33;;;7.60;99.90;;;;;;4997427;28;20447;-86
2021/12/06 11:56:44;;;;;;;13.60;10.17;;;7.70;99.90;;;;;;4998574;28;20470;-87
2021/12/06 11:59:13;;;;;;;14.23;11.53;;;7.60;99.90;;;;;;4998835;28;20523;-87
2021/12/06 12:01:42;;;;;;;14.13;10.80;;;7.80;99.90;;;;;;4996727;28;20948;-86
2021/12/06 12:04:12;;;;;;;13.90;9.17;;;7.80;99.90;;;;;;4979663;28;21018;-86
2021/12/06 12:06:42;;;;;;;12.30;9.20;;;7.80;99.90;;;;;;4977394;28;20483;-86
2021/12/06 12:09:13;;;;;;;11.00;7.70;;;7.90;99.90;;;;;;4989801;28;20458;-87
2021/12/06 12:12:02;;;;;;;8.97;7.20;;;7.90;99.90;;;;;;4995627;28;20461;-86
2021/12/06 12:14:32;;;;;;;11.63;8.40;;;8.00;99.90;;;;;;4994512;28;20467;-86
2021/12/06 12:17:00;;;;;;;11.17;8.10;;;8.00;99.90;;;;;;4996171;28;20439;-87
2021/12/06 12:19:28;;;;;;;8.90;6.30;;;8.10;99.90;;;;;;4996495;28;20502;-86
2021/12/06 12:21:56;;;;;;;8.60;5.80;;;8.30;99.70;;;;;;4996710;28;20454;-86
2021/12/06 12:24:23;;;;;;;7.57;6.77;;;9.20;99.60;;;;;;5004586;28;20458;-87
2021/12/06 12:27:01;;;;;;;15.17;8.97;;;9.90;97.20;;;;;;5001248;28;20493;-87
2021/12/06 12:29:28;;;;;;;11.70;10.17;;;10.00;95.90;;;;;;5009885;28;20435;-86
2021/12/06 12:31:58;;;;;;;16.23;11.70;;;10.00;95.90;;;;;;5016819;28;20454;-86
2021/12/06 12:34:27;;;;;;;12.03;9.90;;;9.90;97.40;;;;;;5007523;28;20451;-85
2021/12/06 12:36:56;;;;;;;13.10;9.80;;;9.30;97.50;;;;;;5012429;28;20514;-87
2021/12/06 12:39:24;;;;;;;14.70;10.63;;;9.10;97.90;;;;;;4997760;28;20774;-87
2021/12/06 12:41:54;;;;;;;12.83;10.27;;;9.10;98.30;;;;;;4998958;28;20451;-85
2021/12/06 12:44:22;;;;;;;11.37;9.47;;;9.10;98.60;;;;;;4999152;28;20447;-86
2021/12/06 12:46:50;;;;;;;15.00;10.60;;;9.10;98.80;;;;;;4999076;28;20505;-87
2021/12/06 12:49:19;;;;;;;18.03;13.27;;;9.00;98.70;;;;;;4997279;28;20545;-87
2021/12/06 12:51:49;;;;;;;12.37;11.07;;;8.80;99.00;;;;;;4997190;28;20459;-86
2021/12/06 12:54:20;;;;;;;14.60;12.40;;;8.60;99.70;;;;;;5007984;28;20438;-84
2021/12/06 12:56:51;;;;;;;16.60;13.40;;;8.50;99.90;;;;;;5010014;28;20447;-85
2021/12/06 12:59:24;;;;;;;16.17;11.87;;;8.30;99.90;;;;;;4998323;28;20447;-86